Upstream stations:
Downstream station:
SHEF ID: FLRK1 COTTONWOOD R NR FLORENCE, KS
STATION TYPE:
Regulating: Stage = 21.00, Flow = 9471
PRECIP STAGE STAGE(2) RIV-FLOW BAT-LOAD
in ft ft cfs volt
Ccp-Rev Ccp-Rev Ccp-Rev Ccp-Rev Ccp-Rev
(US/Central)
11/27 00:00 0.00 3.06 2.91 72 12.83
11/27 01:00 0.00 3.06 2.91 72 12.83
11/27 02:00 0.00 3.06 2.91 72 12.77
11/27 03:00 0.00 3.06 2.91 72 12.77
11/27 04:00 0.00 3.07 2.91 75 12.71
11/27 05:00 0.00 3.07 2.90 75 12.71
11/27 06:00 0.00 3.07 2.90 75 12.65
11/27 07:00 0.00 3.07 2.90 75 12.65
11/27 08:00 0.00 3.07 2.90 75 12.60
11/27 09:00 0.00 3.07 2.91 75 12.83
11/27 10:00 0.00 3.06 2.91 72 13.65
11/27 11:00 0.00 3.04 2.91 67 13.71
11/27 12:00 0.00 3.04 2.90 67 14.06
11/27 13:00 0.00 3.01 2.91 59 13.59
11/27 14:00 0.00 3.01 2.90 59 13.71
11/27 15:00 0.00 3.02 2.90 62 13.65
11/27 16:00 0.00 3.03 2.91 64 13.71
11/27 17:00 0.00 3.06 2.90 72 13.42
11/27 18:00 0.00 3.06 2.91 72 13.07
11/27 19:00 0.00 3.06 2.90 72 13.00
11/27 20:00 0.00 3.06 2.91 72 12.95
11/27 21:00 0.00 3.06 2.91 72 12.95
11/27 22:00 0.00 3.06 2.90 72 12.89
11/27 23:00 0.00 3.06 2.91 72 12.89